sensor_id;sensor_type;location;lat;lon;timestamp;P1;durP1;ratioP1;P2;durP2;ratioP2
53263;SDS011;39153;52.680;6.172;2023-05-01T00:00:54;8.40;;;4.97;;
53263;SDS011;39153;52.680;6.172;2023-05-01T00:03:20;10.93;;;4.95;;
53263;SDS011;39153;52.680;6.172;2023-05-01T00:05:45;10.43;;;4.88;;
53263;SDS011;39153;52.680;6.172;2023-05-01T00:08:12;9.95;;;5.22;;
53263;SDS011;39153;52.680;6.172;2023-05-01T00:10:38;8.95;;;4.75;;
53263;SDS011;39153;52.680;6.172;2023-05-01T00:13:04;9.27;;;5.20;;
53263;SDS011;39153;52.680;6.172;2023-05-01T00:15:30;9.60;;;5.38;;
53263;SDS011;39153;52.680;6.172;2023-05-01T00:17:57;12.32;;;5.78;;
53263;SDS011;39153;52.680;6.172;2023-05-01T00:20:29;9.77;;;5.72;;
53263;SDS011;39153;52.680;6.172;2023-05-01T00:22:55;10.30;;;5.13;;
53263;SDS011;39153;52.680;6.172;2023-05-01T00:25:21;12.68;;;5.20;;
53263;SDS011;39153;52.680;6.172;2023-05-01T00:27:47;12.13;;;4.95;;
53263;SDS011;39153;52.680;6.172;2023-05-01T00:30:13;11.13;;;4.88;;
53263;SDS011;39153;52.680;6.172;2023-05-01T00:32:38;10.82;;;4.85;;
53263;SDS011;39153;52.680;6.172;2023-05-01T00:35:04;9.98;;;5.30;;
53263;SDS011;39153;52.680;6.172;2023-05-01T00:37:30;11.05;;;5.25;;
53263;SDS011;39153;52.680;6.172;2023-05-01T00:39:56;16.20;;;5.25;;
53263;SDS011;39153;52.680;6.172;2023-05-01T00:42:22;9.82;;;4.63;;
53263;SDS011;39153;52.680;6.172;2023-05-01T00:44:47;8.63;;;4.80;;
53263;SDS011;39153;52.680;6.172;2023-05-01T00:47:13;9.82;;;4.78;;
53263;SDS011;39153;52.680;6.172;2023-05-01T00:49:40;9.77;;;4.78;;
53263;SDS011;39153;52.680;6.172;2023-05-01T00:52:06;10.38;;;5.30;;
53263;SDS011;39153;52.680;6.172;2023-05-01T00:54:34;9.23;;;4.95;;
53263;SDS011;39153;52.680;6.172;2023-05-01T00:57:00;10.63;;;5.65;;
53263;SDS011;39153;52.680;6.172;2023-05-01T00:59:26;8.68;;;5.50;;
53263;SDS011;39153;52.680;6.172;2023-05-01T01:01:53;10.40;;;5.75;;
53263;SDS011;39153;52.680;6.172;2023-05-01T01:04:20;9.43;;;5.05;;
53263;SDS011;39153;52.680;6.172;2023-05-01T01:11:58;11.57;;;5.38;;
53263;SDS011;39153;52.680;6.172;2023-05-01T01:14:41;12.13;;;5.78;;
53263;SDS011;39153;52.680;6.172;2023-05-01T01:17:29;12.27;;;5.70;;
53263;SDS011;39153;52.680;6.172;2023-05-01T01:22:58;12.18;;;5.78;;
53263;SDS011;39153;52.680;6.172;2023-05-01T01:28:43;13.98;;;5.95;;
53263;SDS011;39153;52.680;6.172;2023-05-01T01:34:25;10.68;;;5.55;;
53263;SDS011;39153;52.680;6.172;2023-05-01T01:37:04;11.20;;;5.95;;
53263;SDS011;39153;52.680;6.172;2023-05-01T01:42:12;12.20;;;6.40;;
53263;SDS011;39153;52.680;6.172;2023-05-01T01:45:05;11.38;;;5.70;;
53263;SDS011;39153;52.680;6.172;2023-05-01T01:47:34;11.45;;;6.13;;
53263;SDS011;39153;52.680;6.172;2023-05-01T01:50:05;12.35;;;5.35;;
53263;SDS011;39153;52.680;6.172;2023-05-01T01:52:32;11.25;;;6.07;;
53263;SDS011;39153;52.680;6.172;2023-05-01T01:55:04;10.90;;;6.07;;
53263;SDS011;39153;52.680;6.172;2023-05-01T01:57:33;11.13;;;5.90;;
53263;SDS011;39153;52.680;6.172;2023-05-01T02:00:02;11.73;;;5.75;;
53263;SDS011;39153;52.680;6.172;2023-05-01T02:02:33;12.63;;;6.20;;
53263;SDS011;39153;52.680;6.172;2023-05-01T02:05:06;10.70;;;6.20;;
53263;SDS011;39153;52.680;6.172;2023-05-01T02:07:33;12.45;;;6.00;;
53263;SDS011;39153;52.680;6.172;2023-05-01T02:10:02;9.50;;;5.45;;
53263;SDS011;39153;52.680;6.172;2023-05-01T02:12:29;11.75;;;5.88;;
53263;SDS011;39153;52.680;6.172;2023-05-01T02:14:57;10.05;;;5.60;;
53263;SDS011;39153;52.680;6.172;2023-05-01T02:17:24;12.02;;;5.95;;
53263;SDS011;39153;52.680;6.172;2023-05-01T02:19:52;10.52;;;6.00;;
53263;SDS011;39153;52.680;6.172;2023-05-01T02:22:19;8.77;;;5.78;;
53263;SDS011;39153;52.680;6.172;2023-05-01T02:24:46;10.60;;;5.85;;
53263;SDS011;39153;52.680;6.172;2023-05-01T02:27:20;10.48;;;6.28;;
53263;SDS011;39153;52.680;6.172;2023-05-01T02:29:50;8.75;;;6.00;;
53263;SDS011;39153;52.680;6.172;2023-05-01T02:32:16;11.63;;;6.10;;
53263;SDS011;39153;52.680;6.172;2023-05-01T02:34:42;10.10;;;5.55;;
53263;SDS011;39153;52.680;6.172;2023-05-01T02:37:09;9.93;;;5.78;;
53263;SDS011;39153;52.680;6.172;2023-05-01T02:39:36;13.45;;;5.97;;
53263;SDS011;39153;52.680;6.172;2023-05-01T02:42:02;11.45;;;5.85;;
53263;SDS011;39153;52.680;6.172;2023-05-01T02:44:31;9.88;;;6.07;;
53263;SDS011;39153;52.680;6.172;2023-05-01T02:47:03;13.95;;;5.45;;
53263;SDS011;39153;52.680;6.172;2023-05-01T02:49:33;10.27;;;6.05;;
53263;SDS011;39153;52.680;6.172;2023-05-01T02:52:00;9.57;;;5.43;;
53263;SDS011;39153;52.680;6.172;2023-05-01T02:54:29;12.55;;;6.60;;
53263;SDS011;39153;52.680;6.172;2023-05-01T02:56:55;9.70;;;6.00;;
53263;SDS011;39153;52.680;6.172;2023-05-01T02:59:23;11.55;;;5.88;;
53263;SDS011;39153;52.680;6.172;2023-05-01T03:01:49;9.65;;;5.60;;
53263;SDS011;39153;52.680;6.172;2023-05-01T03:04:15;12.70;;;6.13;;
53263;SDS011;39153;52.680;6.172;2023-05-01T03:06:41;10.95;;;6.10;;
53263;SDS011;39153;52.680;6.172;2023-05-01T03:09:08;10.02;;;5.10;;
53263;SDS011;39153;52.680;6.172;2023-05-01T03:11:34;10.75;;;5.57;;
53263;SDS011;39153;52.680;6.172;2023-05-01T03:13:59;12.32;;;5.68;;
53263;SDS011;39153;52.680;6.172;2023-05-01T03:16:25;11.52;;;6.13;;
53263;SDS011;39153;52.680;6.172;2023-05-01T03:18:51;14.13;;;5.80;;
53263;SDS011;39153;52.680;6.172;2023-05-01T03:21:16;12.55;;;5.47;;
53263;SDS011;39153;52.680;6.172;2023-05-01T03:23:42;10.98;;;5.95;;
53263;SDS011;39153;52.680;6.172;2023-05-01T03:26:08;10.98;;;5.93;;
53263;SDS011;39153;52.680;6.172;2023-05-01T03:28:34;9.75;;;5.68;;
53263;SDS011;39153;52.680;6.172;2023-05-01T03:30:59;10.50;;;5.70;;
53263;SDS011;39153;52.680;6.172;2023-05-01T03:33:25;9.32;;;5.55;;
53263;SDS011;39153;52.680;6.172;2023-05-01T03:35:58;11.30;;;5.93;;
53263;SDS011;39153;52.680;6.172;2023-05-01T03:38:31;10.88;;;6.40;;
53263;SDS011;39153;52.680;6.172;2023-05-01T03:40:57;13.93;;;6.20;;
53263;SDS011;39153;52.680;6.172;2023-05-01T03:43:23;9.88;;;5.75;;
53263;SDS011;39153;52.680;6.172;2023-05-01T03:45:49;10.45;;;5.30;;
53263;SDS011;39153;52.680;6.172;2023-05-01T03:48:19;14.93;;;6.55;;
53263;SDS011;39153;52.680;6.172;2023-05-01T03:50:45;13.60;;;6.47;;
53263;SDS011;39153;52.680;6.172;2023-05-01T03:53:11;14.52;;;6.05;;
53263;SDS011;39153;52.680;6.172;2023-05-01T03:55:37;11.95;;;6.03;;
53263;SDS011;39153;52.680;6.172;2023-05-01T03:58:04;11.50;;;5.65;;
53263;SDS011;39153;52.680;6.172;2023-05-01T04:00:31;10.82;;;5.60;;
53263;SDS011;39153;52.680;6.172;2023-05-01T04:03:00;11.27;;;6.47;;
53263;SDS011;39153;52.680;6.172;2023-05-01T04:05:26;12.05;;;5.82;;
53263;SDS011;39153;52.680;6.172;2023-05-01T04:07:51;10.15;;;5.78;;
53263;SDS011;39153;52.680;6.172;2023-05-01T04:10:17;11.40;;;5.53;;
53263;SDS011;39153;52.680;6.172;2023-05-01T04:12:43;12.73;;;5.68;;
53263;SDS011;39153;52.680;6.172;2023-05-01T04:15:09;11.82;;;5.95;;
53263;SDS011;39153;52.680;6.172;2023-05-01T04:17:35;11.18;;;6.32;;
53263;SDS011;39153;52.680;6.172;2023-05-01T04:20:01;13.82;;;6.45;;
53263;SDS011;39153;52.680;6.172;2023-05-01T04:22:29;11.65;;;5.78;;
53263;SDS011;39153;52.680;6.172;2023-05-01T04:24:55;14.45;;;6.10;;
53263;SDS011;39153;52.680;6.172;2023-05-01T04:27:21;11.07;;;6.53;;
53263;SDS011;39153;52.680;6.172;2023-05-01T04:29:47;9.65;;;5.38;;
53263;SDS011;39153;52.680;6.172;2023-05-01T04:32:12;9.75;;;5.50;;
53263;SDS011;39153;52.680;6.172;2023-05-01T04:34:38;13.48;;;6.63;;
53263;SDS011;39153;52.680;6.172;2023-05-01T04:37:04;12.40;;;6.28;;
53263;SDS011;39153;52.680;6.172;2023-05-01T04:39:31;11.20;;;5.88;;
53263;SDS011;39153;52.680;6.172;2023-05-01T04:41:57;11.52;;;5.85;;
53263;SDS011;39153;52.680;6.172;2023-05-01T04:44:23;11.52;;;6.15;;
53263;SDS011;39153;52.680;6.172;2023-05-01T04:46:48;11.60;;;5.93;;
53263;SDS011;39153;52.680;6.172;2023-05-01T04:49:14;13.48;;;5.85;;
53263;SDS011;39153;52.680;6.172;2023-05-01T04:51:40;16.15;;;6.32;;
53263;SDS011;39153;52.680;6.172;2023-05-01T04:54:06;11.80;;;6.15;;
53263;SDS011;39153;52.680;6.172;2023-05-01T04:56:31;14.75;;;5.88;;
53263;SDS011;39153;52.680;6.172;2023-05-01T04:58:58;11.60;;;5.68;;
53263;SDS011;39153;52.680;6.172;2023-05-01T05:01:24;15.38;;;6.00;;
53263;SDS011;39153;52.680;6.172;2023-05-01T05:03:50;13.02;;;5.93;;
53263;SDS011;39153;52.680;6.172;2023-05-01T05:06:15;10.75;;;5.85;;
53263;SDS011;39153;52.680;6.172;2023-05-01T05:08:41;10.77;;;5.95;;
53263;SDS011;39153;52.680;6.172;2023-05-01T05:11:07;12.40;;;6.32;;
53263;SDS011;39153;52.680;6.172;2023-05-01T05:13:32;14.15;;;5.68;;
53263;SDS011;39153;52.680;6.172;2023-05-01T05:15:58;16.23;;;5.80;;
53263;SDS011;39153;52.680;6.172;2023-05-01T05:18:24;11.77;;;5.95;;
53263;SDS011;39153;52.680;6.172;2023-05-01T05:20:49;14.52;;;5.90;;
53263;SDS011;39153;52.680;6.172;2023-05-01T05:23:15;12.60;;;6.30;;
53263;SDS011;39153;52.680;6.172;2023-05-01T05:25:40;9.27;;;5.20;;
53263;SDS011;39153;52.680;6.172;2023-05-01T05:28:06;13.23;;;6.13;;
53263;SDS011;39153;52.680;6.172;2023-05-01T05:30:32;11.65;;;5.85;;
53263;SDS011;39153;52.680;6.172;2023-05-01T05:32:58;12.82;;;6.18;;
53263;SDS011;39153;52.680;6.172;2023-05-01T05:35:24;13.90;;;6.00;;
53263;SDS011;39153;52.680;6.172;2023-05-01T05:37:50;15.45;;;6.47;;
53263;SDS011;39153;52.680;6.172;2023-05-01T05:40:15;12.18;;;5.68;;
53263;SDS011;39153;52.680;6.172;2023-05-01T05:42:41;12.85;;;5.47;;
53263;SDS011;39153;52.680;6.172;2023-05-01T05:45:07;12.70;;;6.10;;
53263;SDS011;39153;52.680;6.172;2023-05-01T05:47:33;12.13;;;6.45;;
53263;SDS011;39153;52.680;6.172;2023-05-01T05:49:59;17.65;;;6.38;;
53263;SDS011;39153;52.680;6.172;2023-05-01T05:52:25;13.88;;;6.03;;
53263;SDS011;39153;52.680;6.172;2023-05-01T05:54:50;12.35;;;5.75;;
53263;SDS011;39153;52.680;6.172;2023-05-01T05:57:16;9.80;;;5.90;;
53263;SDS011;39153;52.680;6.172;2023-05-01T05:59:41;15.48;;;6.10;;
53263;SDS011;39153;52.680;6.172;2023-05-01T06:02:08;13.25;;;6.07;;
53263;SDS011;39153;52.680;6.172;2023-05-01T06:04:34;12.35;;;6.05;;
53263;SDS011;39153;52.680;6.172;2023-05-01T06:07:00;13.85;;;6.07;;
53263;SDS011;39153;52.680;6.172;2023-05-01T06:09:25;9.57;;;6.10;;
53263;SDS011;39153;52.680;6.172;2023-05-01T06:11:51;15.23;;;6.30;;
53263;SDS011;39153;52.680;6.172;2023-05-01T06:14:17;15.15;;;6.20;;
53263;SDS011;39153;52.680;6.172;2023-05-01T06:16:43;13.93;;;6.15;;
53263;SDS011;39153;52.680;6.172;2023-05-01T06:19:09;11.38;;;6.15;;
53263;SDS011;39153;52.680;6.172;2023-05-01T06:21:36;17.95;;;7.00;;
53263;SDS011;39153;52.680;6.172;2023-05-01T06:24:02;11.30;;;6.35;;
53263;SDS011;39153;52.680;6.172;2023-05-01T06:26:28;14.63;;;6.53;;
53263;SDS011;39153;52.680;6.172;2023-05-01T06:28:53;11.80;;;5.80;;
53263;SDS011;39153;52.680;6.172;2023-05-01T06:31:19;11.02;;;5.90;;
53263;SDS011;39153;52.680;6.172;2023-05-01T06:33:45;11.75;;;6.20;;
53263;SDS011;39153;52.680;6.172;2023-05-01T06:36:10;15.20;;;6.60;;
53263;SDS011;39153;52.680;6.172;2023-05-01T06:38:36;11.30;;;6.45;;
53263;SDS011;39153;52.680;6.172;2023-05-01T06:41:05;12.45;;;5.88;;
53263;SDS011;39153;52.680;6.172;2023-05-01T06:43:31;11.57;;;6.13;;
53263;SDS011;39153;52.680;6.172;2023-05-01T06:45:57;10.65;;;5.50;;
53263;SDS011;39153;52.680;6.172;2023-05-01T06:48:23;11.77;;;5.28;;
53263;SDS011;39153;52.680;6.172;2023-05-01T06:50:49;11.15;;;6.05;;
53263;SDS011;39153;52.680;6.172;2023-05-01T06:53:15;10.85;;;5.75;;
53263;SDS011;39153;52.680;6.172;2023-05-01T06:55:41;8.40;;;5.57;;
53263;SDS011;39153;52.680;6.172;2023-05-01T06:58:06;12.73;;;6.20;;
53263;SDS011;39153;52.680;6.172;2023-05-01T07:00:32;9.85;;;5.35;;
53263;SDS011;39153;52.680;6.172;2023-05-01T07:02:58;11.15;;;6.75;;
53263;SDS011;39153;52.680;6.172;2023-05-01T07:05:24;12.00;;;6.13;;
53263;SDS011;39153;52.680;6.172;2023-05-01T07:07:50;10.32;;;5.80;;
53263;SDS011;39153;52.680;6.172;2023-05-01T07:10:16;11.68;;;6.20;;
53263;SDS011;39153;52.680;6.172;2023-05-01T07:12:42;12.10;;;6.00;;
53263;SDS011;39153;52.680;6.172;2023-05-01T07:15:08;15.45;;;6.00;;
53263;SDS011;39153;52.680;6.172;2023-05-01T07:17:34;13.38;;;6.13;;
53263;SDS011;39153;52.680;6.172;2023-05-01T07:20:00;12.50;;;6.53;;
53263;SDS011;39153;52.680;6.172;2023-05-01T07:22:26;13.43;;;6.25;;
53263;SDS011;39153;52.680;6.172;2023-05-01T07:24:53;10.55;;;6.03;;
53263;SDS011;39153;52.680;6.172;2023-05-01T07:27:18;12.27;;;5.40;;
53263;SDS011;39153;52.680;6.172;2023-05-01T07:29:44;14.95;;;6.22;;
53263;SDS011;39153;52.680;6.172;2023-05-01T07:32:10;13.27;;;5.75;;
53263;SDS011;39153;52.680;6.172;2023-05-01T07:34:36;15.13;;;6.03;;
53263;SDS011;39153;52.680;6.172;2023-05-01T07:37:01;12.10;;;5.43;;
53263;SDS011;39153;52.680;6.172;2023-05-01T07:39:28;11.63;;;5.57;;
53263;SDS011;39153;52.680;6.172;2023-05-01T07:41:58;10.75;;;5.47;;
53263;SDS011;39153;52.680;6.172;2023-05-01T07:44:24;11.77;;;5.40;;
53263;SDS011;39153;52.680;6.172;2023-05-01T07:46:49;13.95;;;6.45;;
53263;SDS011;39153;52.680;6.172;2023-05-01T07:49:15;10.82;;;5.72;;
53263;SDS011;39153;52.680;6.172;2023-05-01T07:51:41;14.65;;;5.88;;
53263;SDS011;39153;52.680;6.172;2023-05-01T07:54:07;9.95;;;5.53;;
53263;SDS011;39153;52.680;6.172;2023-05-01T07:56:32;12.43;;;6.28;;
53263;SDS011;39153;52.680;6.172;2023-05-01T07:58:58;12.65;;;6.03;;
53263;SDS011;39153;52.680;6.172;2023-05-01T08:01:24;9.68;;;5.60;;
53263;SDS011;39153;52.680;6.172;2023-05-01T08:03:50;14.88;;;5.63;;
53263;SDS011;39153;52.680;6.172;2023-05-01T08:06:15;8.90;;;5.43;;
53263;SDS011;39153;52.680;6.172;2023-05-01T08:08:41;11.05;;;6.10;;
53263;SDS011;39153;52.680;6.172;2023-05-01T08:11:07;10.88;;;6.65;;
53263;SDS011;39153;52.680;6.172;2023-05-01T08:13:33;12.15;;;6.05;;
53263;SDS011;39153;52.680;6.172;2023-05-01T08:16:02;10.93;;;5.88;;
53263;SDS011;39153;52.680;6.172;2023-05-01T08:18:28;11.43;;;5.85;;
53263;SDS011;39153;52.680;6.172;2023-05-01T08:20:55;13.70;;;5.65;;
53263;SDS011;39153;52.680;6.172;2023-05-01T08:23:20;11.43;;;6.18;;
53263;SDS011;39153;52.680;6.172;2023-05-01T08:25:47;12.63;;;6.20;;
53263;SDS011;39153;52.680;6.172;2023-05-01T08:28:15;14.80;;;5.72;;
53263;SDS011;39153;52.680;6.172;2023-05-01T08:30:44;11.60;;;6.03;;
53263;SDS011;39153;52.680;6.172;2023-05-01T08:33:10;13.82;;;6.30;;
53263;SDS011;39153;52.680;6.172;2023-05-01T08:35:36;12.80;;;5.80;;
53263;SDS011;39153;52.680;6.172;2023-05-01T08:38:01;11.27;;;5.45;;
53263;SDS011;39153;52.680;6.172;2023-05-01T08:40:29;10.15;;;5.68;;
53263;SDS011;39153;52.680;6.172;2023-05-01T08:42:58;9.45;;;5.60;;
53263;SDS011;39153;52.680;6.172;2023-05-01T08:45:25;11.48;;;5.85;;
53263;SDS011;39153;52.680;6.172;2023-05-01T08:47:53;10.80;;;5.70;;
53263;SDS011;39153;52.680;6.172;2023-05-01T08:50:19;11.90;;;6.15;;
53263;SDS011;39153;52.680;6.172;2023-05-01T08:52:46;10.43;;;5.55;;
53263;SDS011;39153;52.680;6.172;2023-05-01T08:55:15;11.57;;;5.57;;
53263;SDS011;39153;52.680;6.172;2023-05-01T08:57:46;12.45;;;5.35;;
53263;SDS011;39153;52.680;6.172;2023-05-01T09:00:16;10.57;;;5.78;;
53263;SDS011;39153;52.680;6.172;2023-05-01T09:02:45;10.88;;;5.57;;
53263;SDS011;39153;52.680;6.172;2023-05-01T09:05:12;13.25;;;6.38;;
53263;SDS011;39153;52.680;6.172;2023-05-01T09:07:42;11.18;;;5.57;;
53263;SDS011;39153;52.680;6.172;2023-05-01T09:10:13;11.38;;;5.85;;
53263;SDS011;39153;52.680;6.172;2023-05-01T09:12:40;11.45;;;6.00;;
53263;SDS011;39153;52.680;6.172;2023-05-01T09:15:09;8.85;;;5.80;;
53263;SDS011;39153;52.680;6.172;2023-05-01T09:17:36;12.50;;;6.45;;
53263;SDS011;39153;52.680;6.172;2023-05-01T09:20:02;10.32;;;5.72;;
53263;SDS011;39153;52.680;6.172;2023-05-01T09:22:30;12.68;;;5.95;;
53263;SDS011;39153;52.680;6.172;2023-05-01T09:24:57;11.27;;;5.70;;
53263;SDS011;39153;52.680;6.172;2023-05-01T09:27:23;11.38;;;6.35;;
53263;SDS011;39153;52.680;6.172;2023-05-01T09:29:50;12.27;;;6.22;;
53263;SDS011;39153;52.680;6.172;2023-05-01T09:32:24;10.88;;;5.53;;
53263;SDS011;39153;52.680;6.172;2023-05-01T09:34:54;9.60;;;5.43;;
53263;SDS011;39153;52.680;6.172;2023-05-01T09:37:33;11.35;;;5.95;;
53263;SDS011;39153;52.680;6.172;2023-05-01T09:40:00;11.45;;;5.78;;
53263;SDS011;39153;52.680;6.172;2023-05-01T09:42:37;10.15;;;6.00;;
53263;SDS011;39153;52.680;6.172;2023-05-01T09:45:05;11.18;;;5.97;;
53263;SDS011;39153;52.680;6.172;2023-05-01T09:47:38;9.85;;;5.63;;
53263;SDS011;39153;52.680;6.172;2023-05-01T09:50:04;10.93;;;5.90;;
53263;SDS011;39153;52.680;6.172;2023-05-01T09:52:31;10.98;;;5.43;;
53263;SDS011;39153;52.680;6.172;2023-05-01T09:55:10;13.63;;;5.88;;
53263;SDS011;39153;52.680;6.172;2023-05-01T09:57:43;12.00;;;6.07;;
53263;SDS011;39153;52.680;6.172;2023-05-01T10:00:13;11.50;;;6.18;;
53263;SDS011;39153;52.680;6.172;2023-05-01T10:02:41;12.80;;;5.80;;
53263;SDS011;39153;52.680;6.172;2023-05-01T10:05:09;11.40;;;5.30;;
53263;SDS011;39153;52.680;6.172;2023-05-01T10:07:36;10.27;;;5.65;;
53263;SDS011;39153;52.680;6.172;2023-05-01T10:10:18;12.38;;;5.72;;
53263;SDS011;39153;52.680;6.172;2023-05-01T10:12:45;10.40;;;3.17;;
53263;SDS011;39153;52.680;6.172;2023-05-01T10:15:11;6.70;;;3.28;;
53263;SDS011;39153;52.680;6.172;2023-05-01T10:17:37;10.23;;;3.38;;
53263;SDS011;39153;52.680;6.172;2023-05-01T10:20:05;6.10;;;2.50;;
53263;SDS011;39153;52.680;6.172;2023-05-01T10:22:32;10.63;;;3.38;;
53263;SDS011;39153;52.680;6.172;2023-05-01T10:24:58;9.20;;;4.00;;
53263;SDS011;39153;52.680;6.172;2023-05-01T10:27:24;9.98;;;3.70;;
53263;SDS011;39153;52.680;6.172;2023-05-01T10:29:53;7.43;;;3.70;;
53263;SDS011;39153;52.680;6.172;2023-05-01T10:32:20;6.93;;;3.10;;
53263;SDS011;39153;52.680;6.172;2023-05-01T10:35:01;7.68;;;3.40;;
53263;SDS011;39153;52.680;6.172;2023-05-01T10:37:36;8.70;;;3.58;;
53263;SDS011;39153;52.680;6.172;2023-05-01T10:43:12;7.95;;;3.00;;
53263;SDS011;39153;52.680;6.172;2023-05-01T10:45:45;6.22;;;3.10;;
53263;SDS011;39153;52.680;6.172;2023-05-01T10:48:20;7.07;;;2.88;;
53263;SDS011;39153;52.680;6.172;2023-05-01T10:53:37;8.38;;;3.30;;
53263;SDS011;39153;52.680;6.172;2023-05-01T10:56:04;8.43;;;2.63;;
53263;SDS011;39153;52.680;6.172;2023-05-01T11:03:56;6.53;;;3.20;;
53263;SDS011;39153;52.680;6.172;2023-05-01T11:06:23;6.30;;;2.97;;
53263;SDS011;39153;52.680;6.172;2023-05-01T11:08:49;9.90;;;3.10;;
53263;SDS011;39153;52.680;6.172;2023-05-01T11:21:45;7.60;;;2.88;;
53263;SDS011;39153;52.680;6.172;2023-05-01T11:24:12;8.32;;;2.45;;
53263;SDS011;39153;52.680;6.172;2023-05-01T11:26:38;5.15;;;1.88;;
53263;SDS011;39153;52.680;6.172;2023-05-01T11:29:06;5.93;;;1.88;;
53263;SDS011;39153;52.680;6.172;2023-05-01T11:31:34;4.88;;;1.15;;
53263;SDS011;39153;52.680;6.172;2023-05-01T11:34:00;5.03;;;1.52;;
53263;SDS011;39153;52.680;6.172;2023-05-01T11:36:27;5.43;;;1.60;;
53263;SDS011;39153;52.680;6.172;2023-05-01T11:38:55;6.03;;;1.60;;
53263;SDS011;39153;52.680;6.172;2023-05-01T11:41:23;4.68;;;1.50;;
53263;SDS011;39153;52.680;6.172;2023-05-01T11:43:50;5.60;;;1.75;;
53263;SDS011;39153;52.680;6.172;2023-05-01T11:46:27;4.80;;;1.50;;
53263;SDS011;39153;52.680;6.172;2023-05-01T11:48:54;5.53;;;2.08;;
53263;SDS011;39153;52.680;6.172;2023-05-01T11:51:26;5.60;;;1.55;;
53263;SDS011;39153;52.680;6.172;2023-05-01T11:54:02;3.90;;;1.92;;
53263;SDS011;39153;52.680;6.172;2023-05-01T11:56:29;3.72;;;1.75;;
53263;SDS011;39153;52.680;6.172;2023-05-01T11:58:57;6.18;;;1.80;;
53263;SDS011;39153;52.680;6.172;2023-05-01T12:01:33;4.93;;;1.80;;
53263;SDS011;39153;52.680;6.172;2023-05-01T12:04:01;5.78;;;1.80;;
53263;SDS011;39153;52.680;6.172;2023-05-01T12:06:40;5.15;;;1.90;;
53263;SDS011;39153;52.680;6.172;2023-05-01T12:09:16;5.57;;;2.38;;
53263;SDS011;39153;52.680;6.172;2023-05-01T12:11:47;7.47;;;2.63;;
53263;SDS011;39153;52.680;6.172;2023-05-01T12:14:15;7.25;;;2.65;;
53263;SDS011;39153;52.680;6.172;2023-05-01T12:16:41;5.75;;;2.15;;
53263;SDS011;39153;52.680;6.172;2023-05-01T12:19:08;5.38;;;2.40;;
53263;SDS011;39153;52.680;6.172;2023-05-01T12:21:36;4.97;;;2.45;;
53263;SDS011;39153;52.680;6.172;2023-05-01T12:24:09;5.80;;;2.85;;
53263;SDS011;39153;52.680;6.172;2023-05-01T12:26:35;5.47;;;2.90;;
53263;SDS011;39153;52.680;6.172;2023-05-01T12:29:05;5.20;;;2.88;;
53263;SDS011;39153;52.680;6.172;2023-05-01T12:31:32;5.35;;;2.40;;
53263;SDS011;39153;52.680;6.172;2023-05-01T12:33:59;5.80;;;2.90;;
53263;SDS011;39153;52.680;6.172;2023-05-01T12:36:30;5.20;;;2.67;;
53263;SDS011;39153;52.680;6.172;2023-05-01T12:41:35;5.70;;;2.45;;
53263;SDS011;39153;52.680;6.172;2023-05-01T12:44:25;6.73;;;2.57;;
53263;SDS011;39153;52.680;6.172;2023-05-01T12:46:55;5.28;;;2.70;;
53263;SDS011;39153;52.680;6.172;2023-05-01T12:49:33;5.72;;;2.58;;
53263;SDS011;39153;52.680;6.172;2023-05-01T12:52:03;5.70;;;2.55;;
53263;SDS011;39153;52.680;6.172;2023-05-01T12:54:32;6.95;;;2.60;;
53263;SDS011;39153;52.680;6.172;2023-05-01T12:57:08;5.32;;;2.90;;
53263;SDS011;39153;52.680;6.172;2023-05-01T12:59:37;5.88;;;2.78;;
53263;SDS011;39153;52.680;6.172;2023-05-01T13:02:04;7.50;;;3.25;;
53263;SDS011;39153;52.680;6.172;2023-05-01T13:04:31;5.75;;;2.45;;
53263;SDS011;39153;52.680;6.172;2023-05-01T13:06:57;7.85;;;2.83;;
53263;SDS011;39153;52.680;6.172;2023-05-01T13:09:24;4.95;;;2.35;;
53263;SDS011;39153;52.680;6.172;2023-05-01T13:14:31;5.35;;;2.13;;
53263;SDS011;39153;52.680;6.172;2023-05-01T13:17:07;5.57;;;2.13;;
53263;SDS011;39153;52.680;6.172;2023-05-01T13:19:33;4.45;;;1.90;;
53263;SDS011;39153;52.680;6.172;2023-05-01T13:21:59;5.13;;;1.50;;
53263;SDS011;39153;52.680;6.172;2023-05-01T13:24:42;4.93;;;1.45;;
53263;SDS011;39153;52.680;6.172;2023-05-01T13:27:10;4.72;;;1.50;;
53263;SDS011;39153;52.680;6.172;2023-05-01T13:29:37;5.10;;;1.30;;
53263;SDS011;39153;52.680;6.172;2023-05-01T13:32:03;4.35;;;1.73;;
53263;SDS011;39153;52.680;6.172;2023-05-01T13:34:30;7.32;;;2.08;;
53263;SDS011;39153;52.680;6.172;2023-05-01T13:36:58;5.32;;;2.40;;
53263;SDS011;39153;52.680;6.172;2023-05-01T13:39:25;5.30;;;2.38;;
53263;SDS011;39153;52.680;6.172;2023-05-01T13:41:51;6.03;;;2.33;;
53263;SDS011;39153;52.680;6.172;2023-05-01T13:44:18;8.05;;;2.75;;
53263;SDS011;39153;52.680;6.172;2023-05-01T13:46:45;5.68;;;2.60;;
53263;SDS011;39153;52.680;6.172;2023-05-01T13:49:11;8.05;;;2.80;;
53263;SDS011;39153;52.680;6.172;2023-05-01T13:51:41;6.03;;;2.45;;
53263;SDS011;39153;52.680;6.172;2023-05-01T13:54:09;6.75;;;2.80;;
53263;SDS011;39153;52.680;6.172;2023-05-01T13:56:36;7.93;;;2.70;;
53263;SDS011;39153;52.680;6.172;2023-05-01T13:59:03;6.18;;;2.70;;
53263;SDS011;39153;52.680;6.172;2023-05-01T14:01:40;7.15;;;2.65;;
53263;SDS011;39153;52.680;6.172;2023-05-01T14:04:16;6.70;;;3.35;;
53263;SDS011;39153;52.680;6.172;2023-05-01T14:06:44;8.75;;;2.97;;
53263;SDS011;39153;52.680;6.172;2023-05-01T14:09:12;6.43;;;3.00;;
53263;SDS011;39153;52.680;6.172;2023-05-01T14:11:45;10.32;;;3.45;;
53263;SDS011;39153;52.680;6.172;2023-05-01T14:14:15;7.10;;;2.95;;
53263;SDS011;39153;52.680;6.172;2023-05-01T14:16:45;7.25;;;3.58;;
53263;SDS011;39153;52.680;6.172;2023-05-01T14:19:15;7.35;;;3.17;;
53263;SDS011;39153;52.680;6.172;2023-05-01T14:21:42;7.10;;;3.30;;
53263;SDS011;39153;52.680;6.172;2023-05-01T14:24:08;7.80;;;3.55;;
53263;SDS011;39153;52.680;6.172;2023-05-01T14:26:35;7.28;;;3.28;;
53263;SDS011;39153;52.680;6.172;2023-05-01T14:29:04;7.93;;;3.40;;
53263;SDS011;39153;52.680;6.172;2023-05-01T14:31:32;7.32;;;3.75;;
53263;SDS011;39153;52.680;6.172;2023-05-01T14:33:58;6.68;;;3.63;;
53263;SDS011;39153;52.680;6.172;2023-05-01T14:36:30;7.20;;;3.40;;
53263;SDS011;39153;52.680;6.172;2023-05-01T14:38:57;7.88;;;3.85;;
53263;SDS011;39153;52.680;6.172;2023-05-01T14:41:23;6.25;;;3.22;;
53263;SDS011;39153;52.680;6.172;2023-05-01T14:43:49;8.20;;;3.53;;
53263;SDS011;39153;52.680;6.172;2023-05-01T14:46:24;7.30;;;3.90;;
53263;SDS011;39153;52.680;6.172;2023-05-01T14:48:51;7.93;;;3.75;;
53263;SDS011;39153;52.680;6.172;2023-05-01T14:51:18;11.20;;;4.45;;
53263;SDS011;39153;52.680;6.172;2023-05-01T14:53:44;10.68;;;4.55;;
53263;SDS011;39153;52.680;6.172;2023-05-01T14:56:10;10.57;;;4.78;;
53263;SDS011;39153;52.680;6.172;2023-05-01T14:58:36;7.82;;;4.18;;
53263;SDS011;39153;52.680;6.172;2023-05-01T15:01:02;9.05;;;3.83;;
53263;SDS011;39153;52.680;6.172;2023-05-01T15:03:28;7.43;;;4.60;;
53263;SDS011;39153;52.680;6.172;2023-05-01T15:05:54;7.38;;;4.05;;
53263;SDS011;39153;52.680;6.172;2023-05-01T15:08:21;7.45;;;4.50;;
53263;SDS011;39153;52.680;6.172;2023-05-01T15:10:47;8.75;;;4.80;;
53263;SDS011;39153;52.680;6.172;2023-05-01T15:13:13;10.80;;;4.90;;
53263;SDS011;39153;52.680;6.172;2023-05-01T15:15:39;8.10;;;4.53;;
53263;SDS011;39153;52.680;6.172;2023-05-01T15:18:05;7.10;;;4.80;;
53263;SDS011;39153;52.680;6.172;2023-05-01T15:20:31;9.20;;;5.68;;
53263;SDS011;39153;52.680;6.172;2023-05-01T15:22:57;8.82;;;5.03;;
53263;SDS011;39153;52.680;6.172;2023-05-01T15:25:22;8.93;;;5.05;;
53263;SDS011;39153;52.680;6.172;2023-05-01T15:27:48;8.10;;;4.75;;